sensor_id;sensor_type;location;lat;lon;timestamp;P1;durP1;ratioP1;P2;durP2;ratioP2
74945;SDS011;63509;45.250;38.102;2023-08-07T00:00:47;6.47;;;3.90;;
74945;SDS011;63509;45.250;38.102;2023-08-07T00:03:15;6.13;;;3.28;;
74945;SDS011;63509;45.250;38.102;2023-08-07T00:05:47;5.63;;;3.50;;
74945;SDS011;63509;45.250;38.102;2023-08-07T00:08:13;12.00;;;5.13;;
74945;SDS011;63509;45.250;38.102;2023-08-07T00:10:39;5.03;;;3.15;;
74945;SDS011;63509;45.250;38.102;2023-08-07T00:13:07;5.28;;;3.53;;
74945;SDS011;63509;45.250;38.102;2023-08-07T00:15:33;9.98;;;4.28;;
74945;SDS011;63509;45.250;38.102;2023-08-07T00:17:59;12.15;;;3.65;;
74945;SDS011;63509;45.250;38.102;2023-08-07T00:20:26;5.15;;;3.53;;
74945;SDS011;63509;45.250;38.102;2023-08-07T00:22:52;8.60;;;3.60;;
74945;SDS011;63509;45.250;38.102;2023-08-07T00:25:18;9.65;;;3.55;;
74945;SDS011;63509;45.250;38.102;2023-08-07T00:27:44;6.05;;;3.53;;
74945;SDS011;63509;45.250;38.102;2023-08-07T00:30:11;8.30;;;4.20;;
74945;SDS011;63509;45.250;38.102;2023-08-07T00:32:37;10.57;;;3.60;;
74945;SDS011;63509;45.250;38.102;2023-08-07T00:35:05;9.27;;;4.47;;
74945;SDS011;63509;45.250;38.102;2023-08-07T00:37:33;7.20;;;4.40;;
74945;SDS011;63509;45.250;38.102;2023-08-07T00:42:28;7.35;;;4.45;;
74945;SDS011;63509;45.250;38.102;2023-08-07T00:44:54;8.18;;;4.13;;
74945;SDS011;63509;45.250;38.102;2023-08-07T00:47:20;16.58;;;8.13;;
74945;SDS011;63509;45.250;38.102;2023-08-07T00:49:47;20.25;;;10.48;;
74945;SDS011;63509;45.250;38.102;2023-08-07T00:52:13;13.02;;;7.75;;
74945;SDS011;63509;45.250;38.102;2023-08-07T00:54:40;8.05;;;4.90;;
74945;SDS011;63509;45.250;38.102;2023-08-07T00:57:10;9.02;;;5.13;;
74945;SDS011;63509;45.250;38.102;2023-08-07T00:59:38;14.88;;;4.18;;
74945;SDS011;63509;45.250;38.102;2023-08-07T01:02:05;10.07;;;3.92;;
74945;SDS011;63509;45.250;38.102;2023-08-07T01:04:32;19.05;;;4.30;;
74945;SDS011;63509;45.250;38.102;2023-08-07T01:06:58;10.35;;;4.22;;
74945;SDS011;63509;45.250;38.102;2023-08-07T01:09:25;7.22;;;4.07;;
74945;SDS011;63509;45.250;38.102;2023-08-07T01:11:57;10.07;;;4.25;;
74945;SDS011;63509;45.250;38.102;2023-08-07T01:15:12;10.45;;;4.45;;
74945;SDS011;63509;45.250;38.102;2023-08-07T01:17:42;7.15;;;3.88;;
74945;SDS011;63509;45.250;38.102;2023-08-07T01:20:10;7.72;;;4.13;;
74945;SDS011;63509;45.250;38.102;2023-08-07T01:22:37;9.15;;;4.60;;
74945;SDS011;63509;45.250;38.102;2023-08-07T01:25:03;9.73;;;3.83;;
74945;SDS011;63509;45.250;38.102;2023-08-07T01:27:31;7.55;;;4.05;;
74945;SDS011;63509;45.250;38.102;2023-08-07T01:35:46;7.05;;;3.95;;
74945;SDS011;63509;45.250;38.102;2023-08-07T01:38:17;7.22;;;3.97;;
74945;SDS011;63509;45.250;38.102;2023-08-07T01:40:45;9.38;;;4.18;;
74945;SDS011;63509;45.250;38.102;2023-08-07T01:43:13;6.72;;;3.90;;
74945;SDS011;63509;45.250;38.102;2023-08-07T01:45:39;5.05;;;3.53;;
74945;SDS011;63509;45.250;38.102;2023-08-07T01:48:07;7.63;;;3.75;;
74945;SDS011;63509;45.250;38.102;2023-08-07T01:50:37;8.45;;;4.13;;
74945;SDS011;63509;45.250;38.102;2023-08-07T01:53:04;10.45;;;4.20;;
74945;SDS011;63509;45.250;38.102;2023-08-07T01:55:31;7.70;;;3.83;;
74945;SDS011;63509;45.250;38.102;2023-08-07T01:57:57;9.15;;;4.13;;
74945;SDS011;63509;45.250;38.102;2023-08-07T02:00:24;8.70;;;3.42;;
74945;SDS011;63509;45.250;38.102;2023-08-07T02:02:50;5.13;;;3.30;;
74945;SDS011;63509;45.250;38.102;2023-08-07T02:05:16;9.65;;;3.35;;
74945;SDS011;63509;45.250;38.102;2023-08-07T02:07:42;5.88;;;3.67;;
74945;SDS011;63509;45.250;38.102;2023-08-07T02:10:10;11.93;;;3.83;;
74945;SDS011;63509;45.250;38.102;2023-08-07T02:12:36;9.48;;;4.68;;
74945;SDS011;63509;45.250;38.102;2023-08-07T02:15:05;6.07;;;3.85;;
74945;SDS011;63509;45.250;38.102;2023-08-07T02:17:32;7.15;;;4.40;;
74945;SDS011;63509;45.250;38.102;2023-08-07T02:19:58;12.63;;;4.72;;
74945;SDS011;63509;45.250;38.102;2023-08-07T02:22:25;21.95;;;3.67;;
74945;SDS011;63509;45.250;38.102;2023-08-07T02:24:51;9.95;;;3.90;;
74945;SDS011;63509;45.250;38.102;2023-08-07T02:27:17;5.68;;;3.15;;
74945;SDS011;63509;45.250;38.102;2023-08-07T02:29:43;8.45;;;3.13;;
74945;SDS011;63509;45.250;38.102;2023-08-07T02:32:10;6.55;;;3.65;;
74945;SDS011;63509;45.250;38.102;2023-08-07T02:34:36;5.75;;;4.13;;
74945;SDS011;63509;45.250;38.102;2023-08-07T02:37:02;12.23;;;5.03;;
74945;SDS011;63509;45.250;38.102;2023-08-07T02:39:29;16.58;;;4.68;;
74945;SDS011;63509;45.250;38.102;2023-08-07T02:41:55;6.18;;;4.10;;
74945;SDS011;63509;45.250;38.102;2023-08-07T02:44:21;8.57;;;4.10;;
74945;SDS011;63509;45.250;38.102;2023-08-07T02:46:48;8.73;;;3.88;;
74945;SDS011;63509;45.250;38.102;2023-08-07T02:49:14;7.82;;;4.05;;
74945;SDS011;63509;45.250;38.102;2023-08-07T02:51:40;7.88;;;3.67;;
74945;SDS011;63509;45.250;38.102;2023-08-07T02:54:06;8.20;;;3.63;;
74945;SDS011;63509;45.250;38.102;2023-08-07T02:56:33;5.90;;;3.72;;
74945;SDS011;63509;45.250;38.102;2023-08-07T02:58:59;6.53;;;3.55;;
74945;SDS011;63509;45.250;38.102;2023-08-07T03:01:27;10.48;;;4.00;;
74945;SDS011;63509;45.250;38.102;2023-08-07T03:03:53;7.55;;;3.70;;
74945;SDS011;63509;45.250;38.102;2023-08-07T03:06:19;5.10;;;4.32;;
74945;SDS011;63509;45.250;38.102;2023-08-07T03:08:46;5.85;;;3.72;;
74945;SDS011;63509;45.250;38.102;2023-08-07T03:11:12;4.90;;;3.88;;
74945;SDS011;63509;45.250;38.102;2023-08-07T03:13:38;6.00;;;3.90;;
74945;SDS011;63509;45.250;38.102;2023-08-07T03:16:05;7.70;;;4.38;;
74945;SDS011;63509;45.250;38.102;2023-08-07T03:18:31;11.40;;;4.32;;
74945;SDS011;63509;45.250;38.102;2023-08-07T03:20:58;14.80;;;4.65;;
74945;SDS011;63509;45.250;38.102;2023-08-07T03:23:25;10.10;;;4.07;;
74945;SDS011;63509;45.250;38.102;2023-08-07T03:26:02;8.05;;;3.88;;
74945;SDS011;63509;45.250;38.102;2023-08-07T03:28:37;12.23;;;4.95;;
74945;SDS011;63509;45.250;38.102;2023-08-07T03:31:05;7.05;;;4.45;;
74945;SDS011;63509;45.250;38.102;2023-08-07T03:33:34;6.60;;;4.00;;
74945;SDS011;63509;45.250;38.102;2023-08-07T03:36:01;11.75;;;4.72;;
74945;SDS011;63509;45.250;38.102;2023-08-07T03:38:27;13.27;;;4.82;;
74945;SDS011;63509;45.250;38.102;2023-08-07T03:40:55;8.38;;;4.85;;
74945;SDS011;63509;45.250;38.102;2023-08-07T03:43:21;9.07;;;3.70;;
74945;SDS011;63509;45.250;38.102;2023-08-07T03:45:53;13.23;;;4.45;;
74945;SDS011;63509;45.250;38.102;2023-08-07T03:48:21;11.27;;;4.60;;
74945;SDS011;63509;45.250;38.102;2023-08-07T03:50:47;9.80;;;3.97;;
74945;SDS011;63509;45.250;38.102;2023-08-07T03:53:13;5.38;;;4.00;;
74945;SDS011;63509;45.250;38.102;2023-08-07T03:55:43;9.27;;;4.05;;
74945;SDS011;63509;45.250;38.102;2023-08-07T03:58:17;11.50;;;4.50;;
74945;SDS011;63509;45.250;38.102;2023-08-07T04:00:43;7.47;;;4.32;;
74945;SDS011;63509;45.250;38.102;2023-08-07T04:03:10;13.50;;;4.68;;
74945;SDS011;63509;45.250;38.102;2023-08-07T04:05:36;15.48;;;4.10;;
74945;SDS011;63509;45.250;38.102;2023-08-07T04:08:03;16.77;;;4.47;;
74945;SDS011;63509;45.250;38.102;2023-08-07T04:10:29;7.25;;;4.85;;
74945;SDS011;63509;45.250;38.102;2023-08-07T04:12:55;12.85;;;3.55;;
74945;SDS011;63509;45.250;38.102;2023-08-07T04:15:25;9.73;;;4.50;;
74945;SDS011;63509;45.250;38.102;2023-08-07T04:17:53;7.43;;;3.35;;
74945;SDS011;63509;45.250;38.102;2023-08-07T04:20:19;6.60;;;3.65;;
74945;SDS011;63509;45.250;38.102;2023-08-07T04:22:46;7.22;;;4.53;;
74945;SDS011;63509;45.250;38.102;2023-08-07T04:25:12;4.88;;;3.47;;
74945;SDS011;63509;45.250;38.102;2023-08-07T04:27:38;10.07;;;4.57;;
74945;SDS011;63509;45.250;38.102;2023-08-07T04:30:05;5.65;;;3.65;;
74945;SDS011;63509;45.250;38.102;2023-08-07T04:32:32;7.90;;;3.13;;
74945;SDS011;63509;45.250;38.102;2023-08-07T04:34:58;7.50;;;3.92;;
74945;SDS011;63509;45.250;38.102;2023-08-07T04:37:25;5.20;;;3.40;;
74945;SDS011;63509;45.250;38.102;2023-08-07T04:39:51;5.13;;;3.88;;
74945;SDS011;63509;45.250;38.102;2023-08-07T04:42:17;6.38;;;3.50;;
74945;SDS011;63509;45.250;38.102;2023-08-07T04:44:43;7.30;;;3.13;;
74945;SDS011;63509;45.250;38.102;2023-08-07T04:47:09;4.55;;;3.28;;
74945;SDS011;63509;45.250;38.102;2023-08-07T04:49:35;5.45;;;3.70;;
74945;SDS011;63509;45.250;38.102;2023-08-07T04:52:01;6.03;;;3.35;;
74945;SDS011;63509;45.250;38.102;2023-08-07T04:54:28;6.88;;;3.50;;
74945;SDS011;63509;45.250;38.102;2023-08-07T04:56:54;5.63;;;2.97;;
74945;SDS011;63509;45.250;38.102;2023-08-07T04:59:21;7.72;;;4.28;;
74945;SDS011;63509;45.250;38.102;2023-08-07T05:01:47;7.28;;;3.30;;
74945;SDS011;63509;45.250;38.102;2023-08-07T05:04:13;3.55;;;2.60;;
74945;SDS011;63509;45.250;38.102;2023-08-07T05:06:39;5.10;;;2.60;;
74945;SDS011;63509;45.250;38.102;2023-08-07T05:09:06;5.35;;;2.22;;
74945;SDS011;63509;45.250;38.102;2023-08-07T05:11:32;9.68;;;2.88;;
74945;SDS011;63509;45.250;38.102;2023-08-07T05:13:59;3.65;;;2.17;;
74945;SDS011;63509;45.250;38.102;2023-08-07T05:16:25;4.43;;;2.25;;
74945;SDS011;63509;45.250;38.102;2023-08-07T05:18:51;5.35;;;2.60;;
74945;SDS011;63509;45.250;38.102;2023-08-07T05:21:18;6.65;;;3.38;;
74945;SDS011;63509;45.250;38.102;2023-08-07T05:23:45;4.78;;;2.35;;
74945;SDS011;63509;45.250;38.102;2023-08-07T05:26:11;3.83;;;2.30;;
74945;SDS011;63509;45.250;38.102;2023-08-07T05:28:37;4.90;;;2.53;;
74945;SDS011;63509;45.250;38.102;2023-08-07T05:31:06;4.53;;;3.17;;
74945;SDS011;63509;45.250;38.102;2023-08-07T05:33:32;4.55;;;2.40;;
74945;SDS011;63509;45.250;38.102;2023-08-07T05:35:58;4.05;;;2.40;;
74945;SDS011;63509;45.250;38.102;2023-08-07T05:38:24;5.35;;;2.80;;
74945;SDS011;63509;45.250;38.102;2023-08-07T05:40:50;8.85;;;2.75;;
74945;SDS011;63509;45.250;38.102;2023-08-07T05:43:17;5.53;;;2.25;;
74945;SDS011;63509;45.250;38.102;2023-08-07T05:45:43;12.63;;;3.25;;
74945;SDS011;63509;45.250;38.102;2023-08-07T05:48:11;5.68;;;2.15;;
74945;SDS011;63509;45.250;38.102;2023-08-07T05:50:37;5.38;;;2.17;;
74945;SDS011;63509;45.250;38.102;2023-08-07T05:53:04;8.88;;;2.20;;
74945;SDS011;63509;45.250;38.102;2023-08-07T05:55:31;7.35;;;2.58;;
74945;SDS011;63509;45.250;38.102;2023-08-07T05:57:57;4.88;;;2.67;;
74945;SDS011;63509;45.250;38.102;2023-08-07T06:00:23;4.38;;;2.10;;
74945;SDS011;63509;45.250;38.102;2023-08-07T14:01:15;7.25;;;2.03;;
74945;SDS011;63509;45.250;38.102;2023-08-07T14:03:41;5.20;;;2.67;;
74945;SDS011;63509;45.250;38.102;2023-08-07T14:06:07;6.93;;;2.97;;
74945;SDS011;63509;45.250;38.102;2023-08-07T14:08:33;8.07;;;3.20;;
74945;SDS011;63509;45.250;38.102;2023-08-07T14:11:00;5.10;;;2.33;;
74945;SDS011;63509;45.250;38.102;2023-08-07T14:13:26;5.15;;;2.45;;
74945;SDS011;63509;45.250;38.102;2023-08-07T14:15:52;5.38;;;2.13;;
74945;SDS011;63509;45.250;38.102;2023-08-07T14:18:18;5.10;;;2.40;;
74945;SDS011;63509;45.250;38.102;2023-08-07T14:20:44;3.15;;;2.17;;
74945;SDS011;63509;45.250;38.102;2023-08-07T14:23:10;4.03;;;2.20;;
74945;SDS011;63509;45.250;38.102;2023-08-07T14:25:36;6.20;;;2.70;;
74945;SDS011;63509;45.250;38.102;2023-08-07T14:28:03;8.75;;;3.88;;
74945;SDS011;63509;45.250;38.102;2023-08-07T14:30:32;9.38;;;3.20;;
74945;SDS011;63509;45.250;38.102;2023-08-07T14:32:58;4.78;;;3.13;;
74945;SDS011;63509;45.250;38.102;2023-08-07T14:35:24;6.30;;;3.72;;
74945;SDS011;63509;45.250;38.102;2023-08-07T14:37:50;7.20;;;3.58;;
74945;SDS011;63509;45.250;38.102;2023-08-07T14:40:16;9.55;;;2.50;;
74945;SDS011;63509;45.250;38.102;2023-08-07T14:42:42;8.23;;;4.22;;
74945;SDS011;63509;45.250;38.102;2023-08-07T14:45:08;5.75;;;2.97;;
74945;SDS011;63509;45.250;38.102;2023-08-07T14:47:35;6.13;;;2.80;;
74945;SDS011;63509;45.250;38.102;2023-08-07T14:50:00;11.50;;;2.75;;
74945;SDS011;63509;45.250;38.102;2023-08-07T14:52:27;10.13;;;3.05;;
74945;SDS011;63509;45.250;38.102;2023-08-07T14:54:53;10.63;;;2.95;;
74945;SDS011;63509;45.250;38.102;2023-08-07T14:57:21;5.82;;;2.65;;
74945;SDS011;63509;45.250;38.102;2023-08-07T14:59:47;6.35;;;2.30;;
74945;SDS011;63509;45.250;38.102;2023-08-07T15:02:13;13.90;;;4.70;;
74945;SDS011;63509;45.250;38.102;2023-08-07T15:04:39;6.78;;;3.47;;
74945;SDS011;63509;45.250;38.102;2023-08-07T15:07:05;8.43;;;3.20;;
74945;SDS011;63509;45.250;38.102;2023-08-07T15:09:31;5.97;;;2.20;;
74945;SDS011;63509;45.250;38.102;2023-08-07T15:11:57;4.10;;;2.47;;
74945;SDS011;63509;45.250;38.102;2023-08-07T15:14:23;5.75;;;2.83;;
74945;SDS011;63509;45.250;38.102;2023-08-07T15:16:49;8.25;;;2.40;;
74945;SDS011;63509;45.250;38.102;2023-08-07T15:19:15;14.70;;;2.65;;
74945;SDS011;63509;45.250;38.102;2023-08-07T15:21:42;6.13;;;2.47;;
74945;SDS011;63509;45.250;38.102;2023-08-07T15:24:08;5.43;;;2.63;;
74945;SDS011;63509;45.250;38.102;2023-08-07T15:26:34;5.47;;;2.60;;
74945;SDS011;63509;45.250;38.102;2023-08-07T15:29:00;3.83;;;2.40;;
74945;SDS011;63509;45.250;38.102;2023-08-07T15:31:26;12.52;;;2.80;;
74945;SDS011;63509;45.250;38.102;2023-08-07T15:33:52;7.45;;;2.65;;
74945;SDS011;63509;45.250;38.102;2023-08-07T15:36:18;9.25;;;2.92;;
74945;SDS011;63509;45.250;38.102;2023-08-07T15:38:44;5.13;;;2.17;;
74945;SDS011;63509;45.250;38.102;2023-08-07T15:41:10;6.20;;;2.95;;
74945;SDS011;63509;45.250;38.102;2023-08-07T15:43:37;7.03;;;3.75;;
74945;SDS011;63509;45.250;38.102;2023-08-07T15:46:03;6.00;;;2.90;;
74945;SDS011;63509;45.250;38.102;2023-08-07T15:48:29;7.30;;;3.13;;
74945;SDS011;63509;45.250;38.102;2023-08-07T15:50:55;7.13;;;2.97;;
74945;SDS011;63509;45.250;38.102;2023-08-07T15:53:21;7.97;;;2.67;;
74945;SDS011;63509;45.250;38.102;2023-08-07T15:55:47;5.55;;;2.40;;
74945;SDS011;63509;45.250;38.102;2023-08-07T15:58:14;6.57;;;2.97;;
74945;SDS011;63509;45.250;38.102;2023-08-07T16:00:42;11.50;;;4.10;;
74945;SDS011;63509;45.250;38.102;2023-08-07T16:03:09;12.57;;;5.18;;
74945;SDS011;63509;45.250;38.102;2023-08-07T16:05:36;16.95;;;5.13;;
74945;SDS011;63509;45.250;38.102;2023-08-07T16:08:03;7.50;;;3.95;;
74945;SDS011;63509;45.250;38.102;2023-08-07T16:10:31;7.78;;;3.42;;
74945;SDS011;63509;45.250;38.102;2023-08-07T16:12:58;10.82;;;3.08;;
74945;SDS011;63509;45.250;38.102;2023-08-07T16:15:25;7.47;;;2.70;;
74945;SDS011;63509;45.250;38.102;2023-08-07T16:17:51;12.43;;;3.80;;
74945;SDS011;63509;45.250;38.102;2023-08-07T16:20:18;7.20;;;3.70;;
74945;SDS011;63509;45.250;38.102;2023-08-07T16:22:45;8.68;;;3.10;;
74945;SDS011;63509;45.250;38.102;2023-08-07T16:25:11;5.82;;;2.58;;
74945;SDS011;63509;45.250;38.102;2023-08-07T16:27:38;7.15;;;3.33;;
74945;SDS011;63509;45.250;38.102;2023-08-07T16:30:05;6.80;;;3.15;;
74945;SDS011;63509;45.250;38.102;2023-08-07T16:32:33;6.85;;;3.40;;
74945;SDS011;63509;45.250;38.102;2023-08-07T16:35:00;8.90;;;2.72;;
74945;SDS011;63509;45.250;38.102;2023-08-07T16:37:27;5.03;;;2.65;;
74945;SDS011;63509;45.250;38.102;2023-08-07T16:42:21;10.45;;;2.97;;
74945;SDS011;63509;45.250;38.102;2023-08-07T16:44:47;7.90;;;2.80;;
74945;SDS011;63509;45.250;38.102;2023-08-07T16:47:14;6.22;;;3.03;;
74945;SDS011;63509;45.250;38.102;2023-08-07T16:49:41;9.25;;;3.10;;
74945;SDS011;63509;45.250;38.102;2023-08-07T16:52:07;7.75;;;2.63;;
74945;SDS011;63509;45.250;38.102;2023-08-07T16:54:35;6.57;;;2.78;;
74945;SDS011;63509;45.250;38.102;2023-08-07T16:57:01;10.48;;;3.55;;
74945;SDS011;63509;45.250;38.102;2023-08-07T16:59:28;11.48;;;3.25;;
74945;SDS011;63509;45.250;38.102;2023-08-07T17:01:55;5.63;;;2.70;;
74945;SDS011;63509;45.250;38.102;2023-08-07T17:04:21;8.02;;;3.05;;
74945;SDS011;63509;45.250;38.102;2023-08-07T17:06:47;8.63;;;3.33;;
74945;SDS011;63509;45.250;38.102;2023-08-07T17:09:13;11.70;;;3.45;;
74945;SDS011;63509;45.250;38.102;2023-08-07T17:11:39;11.52;;;3.88;;
74945;SDS011;63509;45.250;38.102;2023-08-07T17:14:05;10.85;;;3.70;;
74945;SDS011;63509;45.250;38.102;2023-08-07T17:16:32;9.00;;;4.07;;
74945;SDS011;63509;45.250;38.102;2023-08-07T17:18:58;7.50;;;3.45;;
74945;SDS011;63509;45.250;38.102;2023-08-07T17:21:25;5.22;;;3.05;;
74945;SDS011;63509;45.250;38.102;2023-08-07T17:23:51;8.07;;;3.35;;
74945;SDS011;63509;45.250;38.102;2023-08-07T17:26:17;7.93;;;4.10;;
74945;SDS011;63509;45.250;38.102;2023-08-07T17:28:43;10.02;;;4.18;;
74945;SDS011;63509;45.250;38.102;2023-08-07T17:31:09;13.82;;;6.85;;
74945;SDS011;63509;45.250;38.102;2023-08-07T17:33:35;9.00;;;4.50;;
74945;SDS011;63509;45.250;38.102;2023-08-07T17:36:01;25.73;;;11.10;;
74945;SDS011;63509;45.250;38.102;2023-08-07T17:38:27;25.88;;;10.55;;
74945;SDS011;63509;45.250;38.102;2023-08-07T17:40:53;14.20;;;8.23;;
74945;SDS011;63509;45.250;38.102;2023-08-07T17:43:19;15.35;;;6.43;;
74945;SDS011;63509;45.250;38.102;2023-08-07T17:45:45;32.00;;;11.20;;
74945;SDS011;63509;45.250;38.102;2023-08-07T17:48:12;10.25;;;6.18;;
74945;SDS011;63509;45.250;38.102;2023-08-07T17:50:38;10.30;;;5.68;;
74945;SDS011;63509;45.250;38.102;2023-08-07T17:53:04;111.65;;;11.30;;
74945;SDS011;63509;45.250;38.102;2023-08-07T17:55:30;37.00;;;12.65;;
74945;SDS011;63509;45.250;38.102;2023-08-07T17:57:56;11.07;;;5.43;;
74945;SDS011;63509;45.250;38.102;2023-08-07T18:00:22;15.23;;;5.75;;
74945;SDS011;63509;45.250;38.102;2023-08-07T18:02:49;13.38;;;5.55;;
74945;SDS011;63509;45.250;38.102;2023-08-07T18:05:15;16.40;;;5.85;;
74945;SDS011;63509;45.250;38.102;2023-08-07T18:07:41;8.25;;;4.25;;
74945;SDS011;63509;45.250;38.102;2023-08-07T18:10:08;17.00;;;5.85;;
74945;SDS011;63509;45.250;38.102;2023-08-07T18:12:36;10.48;;;4.97;;
74945;SDS011;63509;45.250;38.102;2023-08-07T18:15:03;13.32;;;4.25;;
74945;SDS011;63509;45.250;38.102;2023-08-07T18:17:31;7.72;;;3.70;;
74945;SDS011;63509;45.250;38.102;2023-08-07T18:19:57;10.07;;;4.60;;
74945;SDS011;63509;45.250;38.102;2023-08-07T18:22:24;9.30;;;4.00;;
74945;SDS011;63509;45.250;38.102;2023-08-07T18:24:50;7.43;;;4.47;;
74945;SDS011;63509;45.250;38.102;2023-08-07T18:27:16;7.80;;;3.75;;
74945;SDS011;63509;45.250;38.102;2023-08-07T18:29:47;7.95;;;4.78;;
74945;SDS011;63509;45.250;38.102;2023-08-07T18:32:14;7.18;;;4.07;;
74945;SDS011;63509;45.250;38.102;2023-08-07T18:34:40;8.35;;;4.78;;
74945;SDS011;63509;45.250;38.102;2023-08-07T18:37:06;7.97;;;4.65;;
74945;SDS011;63509;45.250;38.102;2023-08-07T18:39:32;10.68;;;4.38;;
74945;SDS011;63509;45.250;38.102;2023-08-07T18:41:58;5.07;;;3.92;;
74945;SDS011;63509;45.250;38.102;2023-08-07T18:44:24;11.77;;;4.60;;
74945;SDS011;63509;45.250;38.102;2023-08-07T18:46:50;6.65;;;4.28;;
74945;SDS011;63509;45.250;38.102;2023-08-07T18:49:16;13.10;;;4.40;;
74945;SDS011;63509;45.250;38.102;2023-08-07T18:51:42;8.18;;;4.38;;
74945;SDS011;63509;45.250;38.102;2023-08-07T18:54:12;12.73;;;4.35;;
74945;SDS011;63509;45.250;38.102;2023-08-07T18:56:38;13.13;;;4.22;;
74945;SDS011;63509;45.250;38.102;2023-08-07T18:59:05;12.30;;;4.72;;
74945;SDS011;63509;45.250;38.102;2023-08-07T19:01:31;8.82;;;4.68;;
74945;SDS011;63509;45.250;38.102;2023-08-07T19:03:58;9.55;;;4.20;;
74945;SDS011;63509;45.250;38.102;2023-08-07T19:06:25;9.82;;;4.47;;
74945;SDS011;63509;45.250;38.102;2023-08-07T19:08:51;9.25;;;4.20;;
74945;SDS011;63509;45.250;38.102;2023-08-07T19:11:18;10.15;;;5.15;;
74945;SDS011;63509;45.250;38.102;2023-08-07T19:13:46;14.57;;;5.43;;
74945;SDS011;63509;45.250;38.102;2023-08-07T19:16:12;9.80;;;4.47;;
74945;SDS011;63509;45.250;38.102;2023-08-07T19:18:38;6.78;;;4.10;;
74945;SDS011;63509;45.250;38.102;2023-08-07T19:21:04;11.85;;;4.75;;
74945;SDS011;63509;45.250;38.102;2023-08-07T19:23:30;12.63;;;4.72;;
74945;SDS011;63509;45.250;38.102;2023-08-07T19:25:57;9.02;;;4.05;;
74945;SDS011;63509;45.250;38.102;2023-08-07T19:30:50;8.75;;;4.10;;
74945;SDS011;63509;45.250;38.102;2023-08-07T19:33:16;11.23;;;4.45;;
74945;SDS011;63509;45.250;38.102;2023-08-07T19:35:42;7.28;;;4.07;;
74945;SDS011;63509;45.250;38.102;2023-08-07T19:38:08;12.15;;;4.38;;
74945;SDS011;63509;45.250;38.102;2023-08-07T19:40:35;7.82;;;4.55;;
74945;SDS011;63509;45.250;38.102;2023-08-07T19:43:01;6.32;;;3.95;;
74945;SDS011;63509;45.250;38.102;2023-08-07T19:45:27;10.45;;;4.95;;
74945;SDS011;63509;45.250;38.102;2023-08-07T19:47:53;10.98;;;5.05;;
74945;SDS011;63509;45.250;38.102;2023-08-07T19:50:19;12.27;;;4.80;;
74945;SDS011;63509;45.250;38.102;2023-08-07T19:52:46;11.32;;;4.35;;
74945;SDS011;63509;45.250;38.102;2023-08-07T19:55:12;14.43;;;4.35;;
74945;SDS011;63509;45.250;38.102;2023-08-07T19:57:38;10.10;;;4.50;;
74945;SDS011;63509;45.250;38.102;2023-08-07T20:00:04;9.10;;;4.25;;
74945;SDS011;63509;45.250;38.102;2023-08-07T20:02:31;10.32;;;5.13;;
74945;SDS011;63509;45.250;38.102;2023-08-07T20:04:58;11.25;;;5.38;;
74945;SDS011;63509;45.250;38.102;2023-08-07T20:07:24;9.15;;;5.00;;
74945;SDS011;63509;45.250;38.102;2023-08-07T20:09:50;12.38;;;5.38;;
74945;SDS011;63509;45.250;38.102;2023-08-07T20:12:16;10.85;;;5.38;;
74945;SDS011;63509;45.250;38.102;2023-08-07T20:14:42;18.27;;;5.45;;
74945;SDS011;63509;45.250;38.102;2023-08-07T20:17:08;23.83;;;5.10;;
74945;SDS011;63509;45.250;38.102;2023-08-07T20:19:34;12.90;;;5.32;;
74945;SDS011;63509;45.250;38.102;2023-08-07T20:22:00;9.52;;;5.28;;
74945;SDS011;63509;45.250;38.102;2023-08-07T20:24:27;9.85;;;5.78;;
74945;SDS011;63509;45.250;38.102;2023-08-07T20:26:54;9.40;;;4.88;;
74945;SDS011;63509;45.250;38.102;2023-08-07T20:29:20;14.25;;;5.22;;
74945;SDS011;63509;45.250;38.102;2023-08-07T20:31:47;20.15;;;5.40;;
74945;SDS011;63509;45.250;38.102;2023-08-07T20:34:13;10.55;;;5.25;;
74945;SDS011;63509;45.250;38.102;2023-08-07T20:36:39;9.35;;;4.75;;
74945;SDS011;63509;45.250;38.102;2023-08-07T20:39:05;13.88;;;4.93;;
74945;SDS011;63509;45.250;38.102;2023-08-07T20:41:31;7.93;;;4.78;;
74945;SDS011;63509;45.250;38.102;2023-08-07T20:43:57;10.07;;;4.78;;
74945;SDS011;63509;45.250;38.102;2023-08-07T20:46:23;15.73;;;5.53;;
74945;SDS011;63509;45.250;38.102;2023-08-07T20:48:49;7.95;;;4.97;;
74945;SDS011;63509;45.250;38.102;2023-08-07T20:51:17;8.95;;;4.80;;
74945;SDS011;63509;45.250;38.102;2023-08-07T20:53:43;8.25;;;4.65;;
74945;SDS011;63509;45.250;38.102;2023-08-07T20:56:10;8.32;;;5.03;;
74945;SDS011;63509;45.250;38.102;2023-08-07T20:58:37;11.35;;;5.43;;
74945;SDS011;63509;45.250;38.102;2023-08-07T21:01:03;11.75;;;5.22;;
74945;SDS011;63509;45.250;38.102;2023-08-07T21:03:30;7.95;;;4.60;;
74945;SDS011;63509;45.250;38.102;2023-08-07T21:05:56;9.68;;;4.93;;
74945;SDS011;63509;45.250;38.102;2023-08-07T21:08:22;9.57;;;4.80;;
74945;SDS011;63509;45.250;38.102;2023-08-07T21:10:48;14.27;;;5.53;;
74945;SDS011;63509;45.250;38.102;2023-08-07T21:13:14;16.25;;;5.88;;
74945;SDS011;63509;45.250;38.102;2023-08-07T21:15:40;10.82;;;4.43;;
74945;SDS011;63509;45.250;38.102;2023-08-07T21:18:10;10.45;;;5.47;;
74945;SDS011;63509;45.250;38.102;2023-08-07T21:20:36;13.10;;;5.75;;
74945;SDS011;63509;45.250;38.102;2023-08-07T21:23:03;9.07;;;5.28;;
74945;SDS011;63509;45.250;38.102;2023-08-07T21:25:29;8.40;;;5.18;;
74945;SDS011;63509;45.250;38.102;2023-08-07T21:27:55;10.55;;;5.10;;
74945;SDS011;63509;45.250;38.102;2023-08-07T21:30:21;7.80;;;4.75;;
74945;SDS011;63509;45.250;38.102;2023-08-07T21:32:47;14.00;;;5.57;;
74945;SDS011;63509;45.250;38.102;2023-08-07T21:35:13;9.30;;;5.38;;
74945;SDS011;63509;45.250;38.102;2023-08-07T21:37:40;9.43;;;5.30;;
74945;SDS011;63509;45.250;38.102;2023-08-07T21:40:07;8.68;;;5.28;;
74945;SDS011;63509;45.250;38.102;2023-08-07T21:42:36;18.25;;;5.82;;
74945;SDS011;63509;45.250;38.102;2023-08-07T21:45:03;8.43;;;5.93;;
74945;SDS011;63509;45.250;38.102;2023-08-07T21:47:30;12.93;;;5.85;;
74945;SDS011;63509;45.250;38.102;2023-08-07T21:49:57;10.75;;;6.45;;
74945;SDS011;63509;45.250;38.102;2023-08-07T21:52:22;9.82;;;4.53;;
74945;SDS011;63509;45.250;38.102;2023-08-07T21:54:49;14.30;;;6.30;;
74945;SDS011;63509;45.250;38.102;2023-08-07T21:57:15;11.25;;;5.15;;
74945;SDS011;63509;45.250;38.102;2023-08-07T21:59:41;11.95;;;6.72;;
74945;SDS011;63509;45.250;38.102;2023-08-07T22:02:07;10.43;;;6.18;;
74945;SDS011;63509;45.250;38.102;2023-08-07T22:04:33;9.32;;;6.03;;
74945;SDS011;63509;45.250;38.102;2023-08-07T22:06:59;12.32;;;6.25;;
74945;SDS011;63509;45.250;38.102;2023-08-07T22:09:25;9.80;;;6.43;;
74945;SDS011;63509;45.250;38.102;2023-08-07T22:11:51;14.45;;;6.65;;
74945;SDS011;63509;45.250;38.102;2023-08-07T22:14:17;14.35;;;5.53;;
74945;SDS011;63509;45.250;38.102;2023-08-07T22:16:43;8.55;;;5.43;;
74945;SDS011;63509;45.250;38.102;2023-08-07T22:19:09;9.48;;;5.07;;
74945;SDS011;63509;45.250;38.102;2023-08-07T22:21:35;9.05;;;4.97;;
74945;SDS011;63509;45.250;38.102;2023-08-07T22:24:05;15.30;;;6.07;;
74945;SDS011;63509;45.250;38.102;2023-08-07T22:26:31;15.63;;;7.95;;
74945;SDS011;63509;45.250;38.102;2023-08-07T22:28:57;12.30;;;7.30;;
74945;SDS011;63509;45.250;38.102;2023-08-07T22:31:23;26.05;;;7.53;;
74945;SDS011;63509;45.250;38.102;2023-08-07T22:33:49;12.70;;;8.10;;
74945;SDS011;63509;45.250;38.102;2023-08-07T22:36:15;14.55;;;7.63;;